»·PEaware :: N256Z KSTS-KSBA

N256Z :: KSTS-KSBA

FLIGHT INFORMATION

Flight Status: Arrived
Operator: Privately registered:
United States
More flights under this callsign
Pilot: Gregory A. (9731)
Aircraft: PIPER PA-46-500TP MALIBU MERIDIAN
(P46T)
More flights by this aircraft type
Origin: KSTS Sonoma Co
United States
Destination: KSBA Santa Barbara Mun
United States
More flights between these airports :: More routes between these airports
Route: +FREES9 PYE J88 RZS
File this flight plan on PilotEdge
Remarks:
Altitude:
(Current/Filed)
270ft
Speed:
(Current/Filed)
270kts
Departed: 07-Apr-19 09:09 AM
Arrived: 07-Apr-19 10:35 AM
Distance/Time
Traveled:
284nm/1:25
Distance/Time
To Go:
Arrived

Flight Plot

Page will automatically refresh every two minutes.

Flight plan parsing failed; only flown route is shown


Map Options




Map Legend


Flown Route
Filed Route
Departure Airport
Arrival Airport
Navaid (VOR, NDB)
Fix

Horizontal Profiles

Position Reports

Time Latitude Longitude Heading Altitude Ground
Speed
07-Apr-19 08:43 38.512797 -122.806698 359 129ft 0kts
07-Apr-19 08:44 38.512797 -122.806698 359 129ft 0kts
07-Apr-19 08:45 38.512797 -122.806698 359 129ft 0kts
07-Apr-19 08:46 38.512797 -122.806698 359 129ft 0kts
07-Apr-19 08:47 38.512799 -122.806698 359 129ft 0kts
07-Apr-19 08:48 38.512801 -122.806698 359 129ft 0kts
07-Apr-19 08:49 38.512804 -122.806698 359 129ft 0kts
07-Apr-19 08:50 38.512810 -122.806698 359 129ft 0kts
07-Apr-19 08:51 38.512813 -122.806698 359 129ft 0kts
07-Apr-19 08:52 38.512816 -122.806698 359 129ft 0kts
07-Apr-19 08:53 38.512818 -122.806698 359 129ft 0kts
07-Apr-19 08:54 38.512821 -122.806698 358 129ft 0kts
07-Apr-19 08:55 38.512823 -122.806698 358 129ft 0kts
07-Apr-19 08:56 38.512826 -122.806698 358 129ft 0kts
07-Apr-19 08:57 38.512828 -122.806698 358 129ft 0kts
07-Apr-19 08:58 38.512831 -122.806698 358 129ft 0kts
07-Apr-19 08:59 38.512833 -122.806698 358 129ft 0kts
07-Apr-19 09:00 38.512835 -122.806699 358 129ft 0kts
07-Apr-19 09:01 38.512838 -122.806699 358 129ft 0kts
07-Apr-19 09:02 38.513072 -122.808902 267 129ft 0kts
07-Apr-19 09:03 38.512150 -122.809370 157 129ft 18kts
07-Apr-19 09:04 38.505714 -122.805849 155 129ft 29kts
07-Apr-19 09:05 38.502854 -122.804459 191 129ft 0kts
07-Apr-19 09:06 38.502852 -122.804460 191 129ft 0kts
07-Apr-19 09:07 38.503488 -122.806310 336 129ft 4kts
07-Apr-19 09:08 38.504287 -122.806745 337 129ft 42kts
07-Apr-19 09:09 38.520668 -122.834908 236 1044ft 159kts
07-Apr-19 09:10 38.476971 -122.851421 201 2597ft 166kts
07-Apr-19 09:11 38.438972 -122.882001 213 3542ft 167kts
07-Apr-19 09:12 38.400636 -122.918842 205 3875ft 168kts
07-Apr-19 09:13 38.355231 -122.918176 173 5834ft 164kts
07-Apr-19 09:14 38.309950 -122.910240 174 7828ft 165kts
07-Apr-19 09:15 38.264367 -122.901866 175 9828ft 166kts
07-Apr-19 09:16 38.215741 -122.892963 177 11568ft 186kts
07-Apr-19 09:17 38.164540 -122.883443 178 13558ft 182kts
07-Apr-19 09:18 38.113395 -122.874069 178 15569ft 189kts
07-Apr-19 09:19 38.062851 -122.850536 156 17571ft 203kts
07-Apr-19 09:20 38.016638 -122.809883 154 19564ft 200kts
07-Apr-19 09:21 37.971712 -122.769133 154 21554ft 195kts
07-Apr-19 09:22 37.928591 -122.729819 155 23532ft 185kts
07-Apr-19 09:23 37.885087 -122.690483 155 25198ft 201kts
07-Apr-19 09:24 37.838600 -122.648314 155 26804ft 208kts
07-Apr-19 09:25 37.788627 -122.603332 155 27494ft 238kts
07-Apr-19 09:26 37.731724 -122.552054 153 27404ft 258kts
07-Apr-19 09:27 37.672964 -122.498901 153 27398ft 261kts
07-Apr-19 09:28 37.613943 -122.445588 153 27394ft 261kts
07-Apr-19 09:29 37.554614 -122.392283 153 27393ft 261kts
07-Apr-19 09:30 37.495504 -122.339260 153 27401ft 261kts
07-Apr-19 09:31 37.436164 -122.286225 153 27403ft 261kts
07-Apr-19 09:32 37.376989 -122.233401 153 27405ft 261kts
07-Apr-19 09:33 37.317704 -122.180566 153 27402ft 262kts
07-Apr-19 09:34 37.258168 -122.127426 153 27403ft 262kts
07-Apr-19 09:35 37.198743 -122.074675 153 27403ft 262kts
07-Apr-19 09:36 37.139273 -122.022011 154 27393ft 262kts
07-Apr-19 09:37 37.079443 -121.969179 153 27381ft 264kts
07-Apr-19 09:38 37.019386 -121.916019 153 27376ft 265kts
07-Apr-19 09:39 36.965812 -121.868899 153 27374ft 265kts
07-Apr-19 09:40 36.905264 -121.815656 153 27374ft 265kts
07-Apr-19 09:41 36.844848 -121.762585 153 27373ft 266kts
07-Apr-19 09:42 36.784111 -121.709297 153 27370ft 266kts
07-Apr-19 09:43 36.723553 -121.656176 153 27366ft 266kts
07-Apr-19 09:44 36.662978 -121.603129 154 27364ft 266kts
07-Apr-19 09:45 36.602133 -121.550165 153 27365ft 266kts
07-Apr-19 09:46 36.541587 -121.497111 153 27364ft 266kts
07-Apr-19 09:47 36.487785 -121.450009 153 27365ft 267kts
07-Apr-19 09:48 36.426838 -121.396857 153 27367ft 267kts
07-Apr-19 09:49 36.366067 -121.343987 153 27369ft 267kts
07-Apr-19 09:50 36.305085 -121.290951 153 27371ft 267kts
07-Apr-19 09:51 36.244181 -121.238057 153 27372ft 267kts
07-Apr-19 09:52 36.183252 -121.185124 153 27377ft 268kts
07-Apr-19 09:53 36.122095 -121.132041 153 27379ft 268kts
07-Apr-19 09:54 36.061002 -121.079265 153 27380ft 268kts
07-Apr-19 09:55 36.006495 -121.031942 153 27380ft 268kts
07-Apr-19 09:56 35.944810 -120.979483 154 27380ft 269kts
07-Apr-19 09:57 35.883308 -120.926996 153 27379ft 269kts
07-Apr-19 09:58 35.828184 -120.879937 153 27377ft 270kts
07-Apr-19 09:59 35.766524 -120.827282 153 27376ft 270kts
07-Apr-19 10:00 35.704737 -120.774583 153 27375ft 270kts
07-Apr-19 10:01 35.642693 -120.721662 153 27354ft 271kts
07-Apr-19 10:02 35.580504 -120.668825 153 26662ft 264kts
07-Apr-19 10:03 35.520552 -120.617787 153 25105ft 262kts
07-Apr-19 10:04 35.461238 -120.567451 153 23662ft 249kts
07-Apr-19 10:05 35.405593 -120.520260 153 22460ft 239kts
07-Apr-19 10:06 35.351036 -120.474180 152 21233ft 238kts
07-Apr-19 10:07 35.297817 -120.429090 152 19646ft 225kts
07-Apr-19 10:08 35.253244 -120.391375 152 18245ft 220kts
07-Apr-19 10:09 35.208363 -120.353651 151 16814ft 218kts
07-Apr-19 10:10 35.158449 -120.311833 151 15219ft 217kts
07-Apr-19 10:11 35.108407 -120.269856 150 13618ft 217kts
07-Apr-19 10:12 35.064553 -120.233223 150 12439ft 212kts
07-Apr-19 10:13 35.015511 -120.192235 149 11236ft 208kts
07-Apr-19 10:14 34.968728 -120.152993 147 10038ft 200kts
07-Apr-19 10:15 34.924927 -120.116390 146 9124ft 180kts
07-Apr-19 10:16 34.889287 -120.086431 146 9074ft 167kts
07-Apr-19 10:17 34.851112 -120.054590 146 9075ft 169kts
07-Apr-19 10:19 34.812206 -120.022342 146 9069ft 169kts
07-Apr-19 10:20 34.774260 -119.990735 145 9079ft 163kts
07-Apr-19 10:21 34.731539 -119.988789 198 8526ft 178kts
07-Apr-19 10:22 34.683800 -120.009270 198 7326ft 182kts
07-Apr-19 10:23 34.636929 -120.031888 204 6134ft 182kts
07-Apr-19 10:24 34.591920 -120.058577 202 5133ft 172kts
07-Apr-19 10:25 34.552794 -120.080123 203 5070ft 140kts
07-Apr-19 10:26 34.517386 -120.095503 177 5094ft 148kts
07-Apr-19 10:27 34.470820 -120.094427 176 4551ft 182kts
07-Apr-19 10:28 34.420976 -120.092288 169 3644ft 174kts
07-Apr-19 10:29 34.414491 -120.050030 59 3062ft 164kts
07-Apr-19 10:30 34.426008 -120.007788 85 2544ft 119kts
07-Apr-19 10:31 34.425328 -119.972298 92 1944ft 110kts
07-Apr-19 10:32 34.425726 -119.932605 87 1327ft 121kts
07-Apr-19 10:33 34.426718 -119.892192 87 667ft 118kts
07-Apr-19 10:34 34.427603 -119.855567 88 28ft 90kts
07-Apr-19 10:35 34.428657 -119.841985 345 14ft 0kts
07-Apr-19 10:36 34.430034 -119.843312 188 14ft 5kts
07-Apr-19 10:37 34.429979 -119.843293 143 14ft 0kts
07-Apr-19 10:38 34.429979 -119.843293 143 14ft 0kts

Navigation Log

Ident Type
Flight plan parsing failed, navigation log unavailable